Time;durP1;ratioP1;P1;durP2;ratioP2;P2;SDS_P1;SDS_P2;PMS_P1;PMS_P2;Temp;Humidity;BMP_temperature;BMP_pressure;BME280_temperature;BME280_humidity;BME280_pressure;Samples;Min_cycle;Max_cycle;Signal;HPM_P1;HPM_P2
2022/03/07 00:00:32;;;;;;;;;;;;;;;;;;5055709;28;19913;-47
2022/03/07 00:02:58;;;;;;;;;;;;;;;;;;5055719;28;19912;-47
2022/03/07 00:05:23;;;;;;;;;;;;;;;;;;5055693;28;19909;-47
2022/03/07 00:07:48;;;;;;;;;;;;;;;;;;5055887;28;19909;-47
2022/03/07 00:10:13;;;;;;;;;;;;;;;;;;5055465;28;20276;-49
2022/03/07 00:12:38;;;;;;;;;;;;;;;;;;5055472;28;19953;-48
2022/03/07 00:15:03;;;;;;;;;;;;;;;;;;5055197;28;19996;-47
2022/03/07 00:17:28;;;;;;;;;;;;;;;;;;5055429;28;19999;-47
2022/03/07 00:19:53;;;;;;;;;;;;;;;;;;5055072;28;20011;-49
2022/03/07 00:22:18;;;;;;;;;;;;;;;;;;5055004;28;20003;-47
2022/03/07 00:24:44;;;;;;;;;;;;;;;;;;5054954;28;19908;-50
2022/03/07 00:27:09;;;;;;;;;;;;;;;;;;5053921;28;20003;-48
2022/03/07 00:29:34;;;;;;;;;;;;;;;;;;5055172;28;20355;-50
2022/03/07 00:31:59;;;;;;;;;;;;;;;;;;5037159;28;20320;-49
2022/03/07 00:34:24;;;;;;;;;;;;;;;;;;5055137;28;19952;-47
2022/03/07 00:36:49;;;;;;;;;;;;;;;;;;5054816;28;19940;-49
2022/03/07 00:39:14;;;;;;;;;;;;;;;;;;5054904;28;19987;-48
2022/03/07 00:41:39;;;;;;;;;;;;;;;;;;5054995;28;20015;-49
2022/03/07 00:44:04;;;;;;;;;;;;;;;;;;5054823;28;20279;-48
2022/03/07 00:46:29;;;;;;;;;;;;;;;;;;5054861;28;19931;-49
2022/03/07 00:48:54;;;;;;;;;;;;;;;;;;5054768;28;19909;-49
2022/03/07 00:51:20;;;;;;;;;;;;;;;;;;5054715;28;19909;-47
2022/03/07 00:53:46;;;;;;;;;;;;;;;;;;5054725;28;19924;-47
2022/03/07 00:56:11;;;;;;;;;;;;;;;;;;5053464;28;20303;-47
2022/03/07 00:58:36;;;;;;;;;;;;;;;;;;5054639;28;19912;-47
2022/03/07 01:01:01;;;;;;;;;;;;;;;;;;5054689;28;20003;-47
2022/03/07 01:03:27;;;;;;;;;;;;;;;;;;5054644;28;19975;-47
2022/03/07 01:05:52;;;;;;;;;;;;;;;;;;5054154;28;20350;-47
2022/03/07 01:08:17;;;;;;;;;;;;;;;;;;5054269;28;20015;-48
2022/03/07 01:10:42;;;;;;;;;;;;;;;;;;5054364;28;20003;-47
2022/03/07 01:13:07;;;;;;;;;;;;;;;;;;5054379;28;19916;-48
2022/03/07 01:15:32;;;;;;;;;;;;;;;;;;5054544;28;19916;-50
2022/03/07 01:17:59;;;;;;;;;;;;;;;;;;5054312;28;19920;-47
2022/03/07 01:20:24;;;;;;;;;;;;;;;;;;5054374;28;19996;-48
2022/03/07 01:22:50;;;;;;;;;;;;;;;;;;5054470;28;19952;-47
2022/03/07 01:25:15;;;;;;;;;;;;;;;;;;5053919;28;19917;-47
2022/03/07 01:27:40;;;;;;;;;;;;;;;;;;5053483;28;19913;-47
2022/03/07 01:30:05;;;;;;;;;;;;;;;;;;5054119;28;19909;-48
2022/03/07 01:32:30;;;;;;;;;;;;;;;;;;5054226;28;20004;-47
2022/03/07 01:34:55;;;;;;;;;;;;;;;;;;5054138;28;19995;-47
2022/03/07 01:37:20;;;;;;;;;;;;;;;;;;5054190;28;20003;-47
2022/03/07 01:39:45;;;;;;;;;;;;;;;;;;5054353;28;20008;-50
2022/03/07 01:42:11;;;;;;;;;;;;;;;;;;5054274;28;19944;-47
2022/03/07 01:44:36;;;;;;;;;;;;;;;;;;5054190;28;19962;-47
2022/03/07 01:47:01;;;;;;;;;;;;;;;;;;5054114;28;19963;-48
2022/03/07 01:49:26;;;;;;;;;;;;;;;;;;5054284;28;19909;-49
2022/03/07 01:51:51;;;;;;;;;;;;;;;;;;5054173;28;19913;-47
2022/03/07 01:54:16;;;;;;;;;;;;;;;;;;5053931;28;19921;-47
2022/03/07 01:56:45;;;;;;;;;;;;;;;;;;5052853;28;19920;-47
2022/03/07 01:59:11;;;;;;;;;;;;;;;;;;5036052;28;20317;-48
2022/03/07 02:01:36;;;;;;;;;;;;;;;;;;5054047;28;19974;-48
2022/03/07 02:04:01;;;;;;;;;;;;;;;;;;5053997;28;19974;-47
2022/03/07 02:06:26;;;;;;;;;;;;;;;;;;5054108;28;20082;-47
2022/03/07 02:08:52;;;;;;;;;;;;;;;;;;5053919;28;19916;-48
2022/03/07 02:11:17;;;;;;;;;;;;;;;;;;5053897;28;19915;-47
2022/03/07 02:13:42;;;;;;;;;;;;;;;;;;5053872;28;19939;-48
2022/03/07 02:16:07;;;;;;;;;;;;;;;;;;5053864;28;19909;-47
2022/03/07 02:18:33;;;;;;;;;;;;;;;;;;5055812;28;19916;-47
2022/03/07 02:20:58;;;;;;;;;;;;;;;;;;5057664;28;19909;-47
2022/03/07 02:23:23;;;;;;;;;;;;;;;;;;5057580;28;19909;-47
2022/03/07 02:25:48;;;;;;;;;;;;;;;;;;5056084;28;19912;-47
2022/03/07 02:28:13;;;;;;;;;;;;;;;;;;5057468;28;19908;-49
2022/03/07 02:30:38;;;;;;;;;;;;;;;;;;5057121;28;19999;-47
2022/03/07 02:33:03;;;;;;;;;;;;;;;;;;5057523;28;20308;-47
2022/03/07 02:35:28;;;;;;;;;;;;;;;;;;5057197;28;19991;-47
2022/03/07 02:37:53;;;;;;;;;;;;;;;;;;5057298;28;19912;-47
2022/03/07 02:40:20;;;;;;;;;;;;;;;;;;5057253;28;19909;-49
2022/03/07 02:42:45;;;;;;;;;;;;;;;;;;5057269;28;19919;-55
2022/03/07 02:45:10;;;;;;;;;;;;;;;;;;5057732;28;19909;-48
2022/03/07 02:47:35;;;;;;;;;;;;;;;;;;5057277;28;19909;-48
2022/03/07 02:50:00;;;;;;;;;;;;;;;;;;5057201;28;19912;-48
2022/03/07 02:52:25;;;;;;;;;;;;;;;;;;5056787;28;19962;-48
2022/03/07 02:54:51;;;;;;;;;;;;;;;;;;5056627;28;19917;-48
2022/03/07 02:57:16;;;;;;;;;;;;;;;;;;5056063;28;19917;-48
2022/03/07 02:59:41;;;;;;;;;;;;;;;;;;5056887;28;19909;-49
2022/03/07 03:02:06;;;;;;;;;;;;;;;;;;5056995;28;19909;-46
2022/03/07 03:04:33;;;;;;;;;;;;;;;;;;5056681;28;19913;-49
2022/03/07 03:06:59;;;;;;;;;;;;;;;;;;5056866;28;20271;-48
2022/03/07 03:09:24;;;;;;;;;;;;;;;;;;5056500;28;20383;-48
2022/03/07 03:11:49;;;;;;;;;;;;;;;;;;5056443;28;19909;-48
2022/03/07 03:14:15;;;;;;;;;;;;;;;;;;5056631;28;19909;-47
2022/03/07 03:16:40;;;;;;;;;;;;;;;;;;5056518;28;19908;-48
2022/03/07 03:19:05;;;;;;;;;;;;;;;;;;5056401;28;19909;-47
2022/03/07 03:21:30;;;;;;;;;;;;;;;;;;5056377;28;19912;-48
2022/03/07 03:23:55;;;;;;;;;;;;;;;;;;5056366;28;19913;-48
2022/03/07 03:26:20;;;;;;;;;;;;;;;;;;5055156;28;19913;-49
2022/03/07 03:28:45;;;;;;;;;;;;;;;;;;5038332;28;20007;-46
2022/03/07 03:31:11;;;;;;;;;;;;;;;;;;5056345;28;20015;-47
2022/03/07 03:33:36;;;;;;;;;;;;;;;;;;5056487;28;19960;-47
2022/03/07 03:36:01;;;;;;;;;;;;;;;;;;5056272;28;19909;-47
2022/03/07 03:38:26;;;;;;;;;;;;;;;;;;5056152;28;19920;-47
2022/03/07 03:40:51;;;;;;;;;;;;;;;;;;5056116;28;19975;-47
2022/03/07 03:43:17;;;;;;;;;;;;;;;;;;5056069;28;19909;-46
2022/03/07 03:45:42;;;;;;;;;;;;;;;;;;5056043;28;19909;-47
2022/03/07 03:48:07;;;;;;;;;;;;;;;;;;5056074;28;20003;-47
2022/03/07 03:50:32;;;;;;;;;;;;;;;;;;5055922;28;19915;-49
2022/03/07 03:52:57;;;;;;;;;;;;;;;;;;5044584;23;20290;-47
2022/03/07 03:55:22;;;;;;;;;;;;;;;;;;5057427;28;19925;-47
2022/03/07 03:57:47;;;;;;;;;;;;;;;;;;5073559;28;19916;-47
2022/03/07 04:00:12;;;;;;;;;;;;;;;;;;5075835;28;19995;-49
2022/03/07 04:02:37;;;;;;;;;;;;;;;;;;5075810;28;19909;-48
2022/03/07 04:05:02;;;;;;;;;;;;;;;;;;5075569;28;19909;-47
2022/03/07 04:07:28;;;;;;;;;;;;;;;;;;5075762;28;19908;-48
2022/03/07 04:09:53;;;;;;;;;;;;;;;;;;5075777;28;19982;-47
2022/03/07 04:12:18;;;;;;;;;;;;;;;;;;5092001;28;20003;-47
2022/03/07 04:14:43;;;;;;;;;;;;;;;;;;5095761;28;19904;-47
2022/03/07 04:17:08;;;;;;;;;;;;;;;;;;5095716;28;19954;-48
2022/03/07 04:19:33;;;;;;;;;;;;;;;;;;5095903;28;19962;-47
2022/03/07 04:21:59;;;;;;;;;;;;;;;;;;5095712;28;20420;-48
2022/03/07 04:24:24;;;;;;;;;;;;;;;;;;5092011;28;19920;-49
2022/03/07 04:26:49;;;;;;;;;;;;;;;;;;5073504;28;20356;-47
2022/03/07 04:29:14;;;;;;;;;;;;;;;;;;5075496;28;19944;-47
2022/03/07 04:31:39;;;;;;;;;;;;;;;;;;5075204;28;20378;-47
2022/03/07 04:34:04;;;;;;;;;;;;;;;;;;5056968;28;20409;-47
2022/03/07 04:36:30;;;;;;;;;;;;;;;;;;5095530;28;20006;-46
2022/03/07 04:38:55;;;;;;;;;;;;;;;;;;5095293;28;20003;-47
2022/03/07 04:41:20;;;;;;;;;;;;;;;;;;5094820;28;19908;-49
2022/03/07 04:43:45;;;;;;;;;;;;;;;;;;5095225;28;19961;-48
2022/03/07 04:46:10;;;;;;;;;;;;;;;;;;5095136;28;19908;-47
2022/03/07 04:48:35;;;;;;;;;;;;;;;;;;5095169;28;19912;-48
2022/03/07 04:51:00;;;;;;;;;;;;;;;;;;5095135;28;20278;-47
2022/03/07 04:53:25;;;;;;;;;;;;;;;;;;5094683;28;19920;-46
2022/03/07 04:55:50;;;;;;;;;;;;;;;;;;5075498;28;19916;-50
2022/03/07 04:58:16;;;;;;;;;;;;;;;;;;5074546;28;19916;-47
2022/03/07 05:00:41;;;;;;;;;;;;;;;;;;5074667;28;19908;-46
2022/03/07 05:03:06;;;;;;;;;;;;;;;;;;5074690;28;19915;-48
2022/03/07 05:05:31;;;;;;;;;;;;;;;;;;5074339;28;20401;-47
2022/03/07 05:07:56;;;;;;;;;;;;;;;;;;5074668;28;19915;-46
2022/03/07 05:10:22;;;;;;;;;;;;;;;;;;5074504;28;20270;-47
2022/03/07 05:12:47;;;;;;;;;;;;;;;;;;5074592;28;19935;-47
2022/03/07 05:15:12;;;;;;;;;;;;;;;;;;5075164;28;19908;-47
2022/03/07 05:17:37;;;;;;;;;;;;;;;;;;5074557;28;19912;-47
2022/03/07 05:20:03;;;;;;;;;;;;;;;;;;5074753;28;19916;-46
2022/03/07 05:22:28;;;;;;;;;;;;;;;;;;5074728;28;19928;-47
2022/03/07 05:24:53;;;;;;;;;;;;;;;;;;5073909;28;19919;-47
2022/03/07 05:27:18;;;;;;;;;;;;;;;;;;5073899;28;19919;-47
2022/03/07 05:29:43;;;;;;;;;;;;;;;;;;5074631;28;19908;-47
2022/03/07 05:32:08;;;;;;;;;;;;;;;;;;5074391;28;19927;-47
2022/03/07 05:34:33;;;;;;;;;;;;;;;;;;5074444;28;20325;-47
2022/03/07 05:36:58;;;;;;;;;;;;;;;;;;5074214;28;20262;-46
2022/03/07 05:39:23;;;;;;;;;;;;;;;;;;5074466;28;19910;-47
2022/03/07 05:41:48;;;;;;;;;;;;;;;;;;5074380;28;19908;-47
2022/03/07 05:44:14;;;;;;;;;;;;;;;;;;5074326;28;19913;-47
2022/03/07 05:46:39;;;;;;;;;;;;;;;;;;5074242;28;19908;-47
2022/03/07 05:49:04;;;;;;;;;;;;;;;;;;5074308;28;20371;-46
2022/03/07 05:51:31;;;;;;;;;;;;;;;;;;5074340;28;20270;-47
2022/03/07 05:53:56;;;;;;;;;;;;;;;;;;5077434;28;19924;-47
2022/03/07 05:56:21;;;;;;;;;;;;;;;;;;5077520;28;19941;-46
2022/03/07 05:58:46;;;;;;;;;;;;;;;;;;5078129;28;20313;-47
2022/03/07 06:01:12;;;;;;;;;;;;;;;;;;5078140;28;19921;-52
2022/03/07 06:03:37;;;;;;;;;;;;;;;;;;5079973;28;19909;-52
2022/03/07 06:06:02;;;;;;;;;;;;;;;;;;5080069;28;19944;-52
2022/03/07 06:08:27;;;;;;;;;;;;;;;;;;5079782;28;20279;-52
2022/03/07 06:10:52;;;;;;;;;;;;;;;;;;5080164;28;19909;-52
2022/03/07 06:13:19;;;;;;;;;;;;;;;;;;5079578;28;19908;-52
2022/03/07 06:15:44;;;;;;;;;;;;;;;;;;5079915;28;19909;-53
2022/03/07 06:18:09;;;;;;;;;;;;;;;;;;5095672;28;19923;-52
2022/03/07 06:20:34;;;;;;;;;;;;;;;;;;5100080;28;19990;-52
2022/03/07 06:23:00;;;;;;;;;;;;;;;;;;5099573;28;19905;-53
2022/03/07 06:25:25;;;;;;;;;;;;;;;;;;5082327;28;19912;-52
2022/03/07 06:27:50;;;;;;;;;;;;;;;;;;5096844;28;20305;-52
2022/03/07 06:30:16;;;;;;;;;;;;;;;;;;5084041;28;19909;-53
2022/03/07 06:32:41;;;;;;;;;;;;;;;;;;5079815;28;19913;-52
2022/03/07 06:35:06;;;;;;;;;;;;;;;;;;5064852;28;19921;-51
2022/03/07 06:37:31;;;;;;;;;;;;;;;;;;5071055;28;19928;-52
2022/03/07 06:39:56;;;;;;;;;;;;;;;;;;5068025;28;19912;-53
2022/03/07 06:42:21;;;;;;;;;;;;;;;;;;5071665;28;19920;-52
2022/03/07 06:44:46;;;;;;;;;;;;;;;;;;5069181;28;20264;-52
2022/03/07 06:47:11;;;;;;;;;;;;;;;;;;5077544;28;19920;-52
2022/03/07 06:49:37;;;;;;;;;;;;;;;;;;5066475;28;20318;-53
2022/03/07 06:52:02;;;;;;;;;;;;;;;;;;5068682;28;19920;-53
2022/03/07 06:54:27;;;;;;;;;;;;;;;;;;5064244;28;19928;-52
2022/03/07 06:56:52;;;;;;;;;;;;;;;;;;5062748;28;19959;-53
2022/03/07 06:59:17;;;;;;;;;;;;;;;;;;5042132;28;19927;-52
2022/03/07 07:01:42;;;;;;;;;;;;;;;;;;5052022;28;19992;-52
2022/03/07 07:04:08;;;;;;;;;;;;;;;;;;5053848;28;19935;-52
2022/03/07 07:06:33;;;;;;;;;;;;;;;;;;5047494;28;19913;-52
2022/03/07 07:08:58;;;;;;;;;;;;;;;;;;5049064;28;19921;-52
2022/03/07 07:11:23;;;;;;;;;;;;;;;;;;5021134;28;19927;-53
2022/03/07 07:13:48;;;;;;;;;;;;;;;;;;5020365;28;20398;-52
2022/03/07 07:16:13;;;;;;;;;;;;;;;;;;4980710;28;19924;-52
2022/03/07 07:18:38;;;;;;;;;;;;;;;;;;4904741;28;21923;-52
2022/03/07 07:21:04;;;;;;;;;;;;;;;;;;4886843;28;21634;-52
2022/03/07 07:23:29;;;;;;;;;;;;;;;;;;4838040;28;19931;-53
2022/03/07 07:25:54;;;;;;;;;;;;;;;;;;4770931;28;20830;-53
2022/03/07 07:28:19;;;;;;;;;;;;;;;;;;4757662;28;19916;-52
2022/03/07 07:30:46;;;;;;;;;;;;;;;;;;4742298;28;21765;-51
2022/03/07 07:33:11;;;;;;;;;;;;;;;;;;4787013;28;21689;-52
2022/03/07 07:35:36;;;;;;;;;;;;;;;;;;4844087;28;20665;-52
2022/03/07 07:38:01;;;;;;;;;;;;;;;;;;4897907;28;19936;-51
2022/03/07 07:40:26;;;;;;;;;;;;;;;;;;4873633;28;20313;-52
2022/03/07 07:42:52;;;;;;;;;;;;;;;;;;4896834;28;19920;-52
2022/03/07 07:45:17;;;;;;;;;;;;;;;;;;4895919;28;19966;-52
2022/03/07 07:47:43;;;;;;;;;;;;;;;;;;4907203;28;21673;-52
2022/03/07 07:50:08;;;;;;;;;;;;;;;;;;4924832;28;19966;-52
2022/03/07 07:52:33;;;;;;;;;;;;;;;;;;4902033;28;19959;-52
2022/03/07 07:54:58;;;;;;;;;;;;;;;;;;4918852;28;21894;-52
2022/03/07 07:57:23;;;;;;;;;;;;;;;;;;4889317;28;20033;-52
2022/03/07 07:59:48;;;;;;;;;;;;;;;;;;4893737;28;19921;-52
2022/03/07 08:02:13;;;;;;;;;;;;;;;;;;4862814;28;22352;-53
2022/03/07 08:04:38;;;;;;;;;;;;;;;;;;4847515;28;19921;-52
2022/03/07 08:07:04;;;;;;;;;;;;;;;;;;4784048;28;20375;-53
2022/03/07 08:09:29;;;;;;;;;;;;;;;;;;4795366;28;21645;-53
2022/03/07 08:11:54;;;;;;;;;;;;;;;;;;4720349;28;19920;-53
2022/03/07 08:14:20;;;;;;;;;;;;;;;;;;4737201;28;20624;-54
2022/03/07 08:16:45;;;;;;;;;;;;;;;;;;4661707;28;19924;-53
2022/03/07 08:19:10;;;;;;;;;;;;;;;;;;4514901;28;20631;-55
2022/03/07 08:21:35;;;;;;;;;;;;;;;;;;4660556;28;23860;-53
2022/03/07 08:24:00;;;;;;;;;;;;;;;;;;4638947;28;22353;-53
2022/03/07 08:26:26;;;;;;;;;;;;;;;;;;4726792;28;20764;-52
2022/03/07 08:28:51;;;;;;;;;;;;;;;;;;4811206;28;19921;-53
2022/03/07 08:31:16;;;;;;;;;;;;;;;;;;4759451;28;22363;-53
2022/03/07 08:33:41;;;;;;;;;;;;;;;;;;4792292;28;20541;-55
2022/03/07 08:36:06;;;;;;;;;;;;;;;;;;4758628;28;19966;-54
2022/03/07 08:38:32;;;;;;;;;;;;;;;;;;4775900;28;20010;-52
2022/03/07 08:40:57;;;;;;;;;;;;;;;;;;4802551;28;20094;-52
2022/03/07 08:43:22;;;;;;;;;;;;;;;;;;4791301;28;21795;-52
2022/03/07 08:45:47;;;;;;;;;;;;;;;;;;4796812;28;19921;-53
2022/03/07 08:48:12;;;;;;;;;;;;;;;;;;4790328;28;20665;-52
2022/03/07 08:50:37;;;;;;;;;;;;;;;;;;4740511;28;22923;-54
2022/03/07 08:53:02;;;;;;;;;;;;;;;;;;4759652;28;26004;-53
2022/03/07 08:55:27;;;;;;;;;;;;;;;;;;4767709;28;22461;-53
2022/03/07 08:57:52;;;;;;;;;;;;;;;;;;4750051;28;19947;-53
2022/03/07 09:00:17;;;;;;;;;;;;;;;;;;4751246;28;19928;-53
2022/03/07 09:02:43;;;;;;;;;;;;;;;;;;4738167;28;20397;-52
2022/03/07 09:05:08;;;;;;;;;;;;;;;;;;4779813;28;21153;-54
2022/03/07 09:07:33;;;;;;;;;;;;;;;;;;4723666;28;19920;-53
2022/03/07 09:09:58;;;;;;;;;;;;;;;;;;4736647;28;20321;-53
2022/03/07 09:12:27;;;;;;;;;;;;;;;;;;4738857;28;21312;-53
2022/03/07 09:14:52;;;;;;;;;;;;;;;;;;4798219;28;21194;-53
2022/03/07 09:17:17;;;;;;;;;;;;;;;;;;4797706;28;21320;-54
2022/03/07 09:19:42;;;;;;;;;;;;;;;;;;4838979;28;20476;-53
2022/03/07 09:22:08;;;;;;;;;;;;;;;;;;4848139;28;19927;-52
2022/03/07 09:24:33;;;;;;;;;;;;;;;;;;4818281;28;20022;-53
2022/03/07 09:26:58;;;;;;;;;;;;;;;;;;4811065;28;20570;-53
2022/03/07 09:29:24;;;;;;;;;;;;;;;;;;4706139;28;22071;-54
2022/03/07 09:31:49;;;;;;;;;;;;;;;;;;4698612;28;19921;-52
2022/03/07 09:34:14;;;;;;;;;;;;;;;;;;4698750;28;21767;-53
2022/03/07 09:36:39;;;;;;;;;;;;;;;;;;4820560;28;21788;-51
2022/03/07 09:39:04;;;;;;;;;;;;;;;;;;4810979;28;20371;-52
2022/03/07 09:41:29;;;;;;;;;;;;;;;;;;4818740;28;20006;-53
2022/03/07 09:43:55;;;;;;;;;;;;;;;;;;4804633;28;19976;-55
2022/03/07 09:46:20;;;;;;;;;;;;;;;;;;4838154;28;19968;-52
2022/03/07 09:48:45;;;;;;;;;;;;;;;;;;4855204;28;19927;-54
2022/03/07 09:51:10;;;;;;;;;;;;;;;;;;4840990;28;22539;-53
2022/03/07 09:53:35;;;;;;;;;;;;;;;;;;4860060;28;19939;-55
2022/03/07 09:56:00;;;;;;;;;;;;;;;;;;4805585;28;20682;-53
2022/03/07 09:58:25;;;;;;;;;;;;;;;;;;4824637;28;19924;-53
2022/03/07 10:00:51;;;;;;;;;;;;;;;;;;4847964;28;19921;-54
2022/03/07 10:03:18;;;;;;;;;;;;;;;;;;4800749;28;19928;-55
2022/03/07 10:05:46;;;;;;;;;;;;;;;;;;4795298;28;19920;-55
2022/03/07 10:08:11;;;;;;;;;;;;;;;;;;4794248;28;19920;-54
2022/03/07 10:10:36;;;;;;;;;;;;;;;;;;4803347;28;19994;-56
2022/03/07 10:13:01;;;;;;;;;;;;;;;;;;4806313;28;19920;-54
2022/03/07 10:15:26;;;;;;;;;;;;;;;;;;4797386;28;19920;-52
2022/03/07 10:17:52;;;;;;;;;;;;;;;;;;4774381;28;20074;-53
2022/03/07 10:20:20;;;;;;;;;;;;;;;;;;4747649;28;20003;-53
2022/03/07 10:22:45;;;;;;;;;;;;;;;;;;4722189;28;20023;-55
2022/03/07 10:25:10;;;;;;;;;;;;;;;;;;4747425;28;19920;-53
2022/03/07 10:27:37;;;;;;;;;;;;;;;;;;4768787;28;19927;-51
2022/03/07 10:30:03;;;;;;;;;;;;;;;;;;4787057;28;19927;-51
2022/03/07 10:32:28;;;;;;;;;;;;;;;;;;4782585;28;21044;-55
2022/03/07 10:34:53;;;;;;;;;;;;;;;;;;4784403;28;26525;-52
2022/03/07 10:37:18;;;;;;;;;;;;;;;;;;4795584;28;19921;-53
2022/03/07 10:39:43;;;;;;;;;;;;;;;;;;4781595;28;20141;-55
2022/03/07 10:42:08;;;;;;;;;;;;;;;;;;4794098;28;19929;-51
2022/03/07 10:44:38;;;;;;;;;;;;;;;;;;4793831;28;20031;-54
2022/03/07 10:47:03;;;;;;;;;;;;;;;;;;4777350;28;21290;-53
2022/03/07 10:49:28;;;;;;;;;;;;;;;;;;4791807;28;22023;-53
2022/03/07 10:51:53;;;;;;;;;;;;;;;;;;4760347;28;20004;-52
2022/03/07 10:54:18;;;;;;;;;;;;;;;;;;4784199;28;20047;-51
2022/03/07 10:56:43;;;;;;;;;;;;;;;;;;4784982;28;19920;-54
2022/03/07 10:59:11;;;;;;;;;;;;;;;;;;4790244;28;19923;-54
2022/03/07 11:01:36;;;;;;;;;;;;;;;;;;4759750;28;20013;-51
2022/03/07 11:04:01;;;;;;;;;;;;;;;;;;4723377;28;25204;-54
2022/03/07 11:06:26;;;;;;;;;;;;;;;;;;4696878;28;21725;-52
2022/03/07 11:08:52;;;;;;;;;;;;;;;;;;4678982;28;21461;-51
2022/03/07 11:11:17;;;;;;;;;;;;;;;;;;4671873;28;19975;-51
2022/03/07 11:13:42;;;;;;;;;;;;;;;;;;4584822;28;23221;-52
2022/03/07 11:16:08;;;;;;;;;;;;;;;;;;4541570;28;21458;-51
2022/03/07 11:18:33;;;;;;;;;;;;;;;;;;4583675;28;20167;-52
2022/03/07 11:20:58;;;;;;;;;;;;;;;;;;4648765;28;20853;-53
2022/03/07 11:23:23;;;;;;;;;;;;;;;;;;4700020;28;20538;-51
2022/03/07 11:25:48;;;;;;;;;;;;;;;;;;4737523;28;20645;-54
2022/03/07 11:28:13;;;;;;;;;;;;;;;;;;4689344;28;22520;-52
2022/03/07 11:30:39;;;;;;;;;;;;;;;;;;4739341;28;21754;-51
2022/03/07 11:33:04;;;;;;;;;;;;;;;;;;4727070;28;21451;-53
2022/03/07 11:35:29;;;;;;;;;;;;;;;;;;4694804;28;20621;-52
2022/03/07 11:37:55;;;;;;;;;;;;;;;;;;4571911;28;20011;-54
2022/03/07 11:40:20;;;;;;;;;;;;;;;;;;4545317;28;22441;-53
2022/03/07 11:42:45;;;;;;;;;;;;;;;;;;4680478;28;21413;-56
2022/03/07 11:45:10;;;;;;;;;;;;;;;;;;4688233;28;22260;-54
2022/03/07 11:47:35;;;;;;;;;;;;;;;;;;4723587;28;21656;-54
2022/03/07 11:50:00;;;;;;;;;;;;;;;;;;4747378;28;21123;-52
2022/03/07 11:52:25;;;;;;;;;;;;;;;;;;4766325;28;22654;-55
2022/03/07 11:54:51;;;;;;;;;;;;;;;;;;4785444;28;20508;-52
2022/03/07 11:57:17;;;;;;;;;;;;;;;;;;4710503;28;19921;-52
2022/03/07 11:59:43;;;;;;;;;;;;;;;;;;4743209;28;19924;-53
2022/03/07 12:02:08;;;;;;;;;;;;;;;;;;4699651;28;19920;-55
2022/03/07 12:04:33;;;;;;;;;;;;;;;;;;4780548;28;19928;-54
2022/03/07 12:06:58;;;;;;;;;;;;;;;;;;4848012;28;20002;-50
2022/03/07 12:09:23;;;;;;;;;;;;;;;;;;4852881;28;19983;-50
2022/03/07 12:11:48;;;;;;;;;;;;;;;;;;4852590;28;19927;-50
2022/03/07 12:14:13;;;;;;;;;;;;;;;;;;4887924;28;20051;-50
2022/03/07 12:16:38;;;;;;;;;;;;;;;;;;4855898;28;19920;-49
2022/03/07 12:19:04;;;;;;;;;;;;;;;;;;4821944;28;20060;-49
2022/03/07 12:21:29;;;;;;;;;;;;;;;;;;4868823;28;20640;-49
2022/03/07 12:23:54;;;;;;;;;;;;;;;;;;4878588;28;22368;-53
2022/03/07 12:26:19;;;;;;;;;;;;;;;;;;4867606;28;20001;-50
2022/03/07 12:28:44;;;;;;;;;;;;;;;;;;4804555;28;19928;-50
2022/03/07 12:31:09;;;;;;;;;;;;;;;;;;4646278;28;21406;-50
2022/03/07 12:33:35;;;;;;;;;;;;;;;;;;4576939;28;22417;-51
2022/03/07 12:36:00;;;;;;;;;;;;;;;;;;4668297;28;22930;-48
2022/03/07 12:38:25;;;;;;;;;;;;;;;;;;4693904;28;21361;-50
2022/03/07 12:40:50;;;;;;;;;;;;;;;;;;4711621;28;20009;-51
2022/03/07 12:43:15;;;;;;;;;;;;;;;;;;4790674;28;20799;-50
2022/03/07 12:45:40;;;;;;;;;;;;;;;;;;4769895;28;21196;-50
2022/03/07 12:48:05;;;;;;;;;;;;;;;;;;4754111;28;23143;-52
2022/03/07 12:50:32;;;;;;;;;;;;;;;;;;4790440;28;21445;-53
2022/03/07 12:52:57;;;;;;;;;;;;;;;;;;4778981;28;21992;-51
2022/03/07 12:55:22;;;;;;;;;;;;;;;;;;4783668;28;20902;-52
2022/03/07 12:57:47;;;;;;;;;;;;;;;;;;4770006;28;21309;-50
2022/03/07 13:00:12;;;;;;;;;;;;;;;;;;4784895;28;20360;-52
2022/03/07 13:02:38;;;;;;;;;;;;;;;;;;4781264;28;21607;-52
2022/03/07 13:05:03;;;;;;;;;;;;;;;;;;4810326;28;21126;-51
2022/03/07 13:07:29;;;;;;;;;;;;;;;;;;4790201;28;19927;-49
2022/03/07 13:09:54;;;;;;;;;;;;;;;;;;4771436;28;24507;-49
2022/03/07 13:12:19;;;;;;;;;;;;;;;;;;4755720;28;23274;-49
2022/03/07 13:14:44;;;;;;;;;;;;;;;;;;4759637;28;19921;-49
2022/03/07 13:17:10;;;;;;;;;;;;;;;;;;4748935;28;19920;-50
2022/03/07 13:19:35;;;;;;;;;;;;;;;;;;4712208;28;20747;-50
2022/03/07 13:22:00;;;;;;;;;;;;;;;;;;4675622;28;19927;-51
2022/03/07 13:24:25;;;;;;;;;;;;;;;;;;4704141;28;20071;-52
2022/03/07 13:26:50;;;;;;;;;;;;;;;;;;4748305;28;20741;-50
2022/03/07 13:29:15;;;;;;;;;;;;;;;;;;4820002;28;20624;-51
2022/03/07 13:31:41;;;;;;;;;;;;;;;;;;4866827;28;22161;-49
2022/03/07 13:34:06;;;;;;;;;;;;;;;;;;4870630;28;20898;-49
2022/03/07 13:36:31;;;;;;;;;;;;;;;;;;4898350;28;19921;-50
2022/03/07 13:38:56;;;;;;;;;;;;;;;;;;4917008;28;20149;-50
2022/03/07 13:41:22;;;;;;;;;;;;;;;;;;4914481;28;19948;-50
2022/03/07 13:43:47;;;;;;;;;;;;;;;;;;4911823;28;19939;-49
2022/03/07 13:46:12;;;;;;;;;;;;;;;;;;4922160;28;19920;-51
2022/03/07 13:48:37;;;;;;;;;;;;;;;;;;4909416;28;20606;-51
2022/03/07 13:51:02;;;;;;;;;;;;;;;;;;4915750;28;20098;-53
2022/03/07 13:53:27;;;;;;;;;;;;;;;;;;4905031;28;19927;-52
2022/03/07 13:55:54;;;;;;;;;;;;;;;;;;4907787;28;19920;-52
2022/03/07 13:58:21;;;;;;;;;;;;;;;;;;4917010;28;22736;-52
2022/03/07 14:00:47;;;;;;;;;;;;;;;;;;4897418;28;19921;-49
2022/03/07 14:03:13;;;;;;;;;;;;;;;;;;4898738;28;19928;-50
2022/03/07 14:05:38;;;;;;;;;;;;;;;;;;4902681;28;19974;-52
2022/03/07 14:08:03;;;;;;;;;;;;;;;;;;4893026;28;19927;-52
2022/03/07 14:10:28;;;;;;;;;;;;;;;;;;4849453;28;19920;-50
2022/03/07 14:12:53;;;;;;;;;;;;;;;;;;4801271;28;19920;-51
2022/03/07 14:15:18;;;;;;;;;;;;;;;;;;4834838;28;21709;-49
2022/03/07 14:17:43;;;;;;;;;;;;;;;;;;4824947;28;19928;-50
2022/03/07 14:20:08;;;;;;;;;;;;;;;;;;4780679;28;20712;-51
2022/03/07 14:22:34;;;;;;;;;;;;;;;;;;4847683;28;22818;-53
2022/03/07 14:24:59;;;;;;;;;;;;;;;;;;4894950;28;20595;-50
2022/03/07 14:27:24;;;;;;;;;;;;;;;;;;4898588;28;21981;-52
2022/03/07 14:29:49;;;;;;;;;;;;;;;;;;4882847;28;20027;-51
2022/03/07 14:32:14;;;;;;;;;;;;;;;;;;4918162;28;22189;-50
2022/03/07 14:34:39;;;;;;;;;;;;;;;;;;4930878;28;19958;-51
2022/03/07 14:37:04;;;;;;;;;;;;;;;;;;4956891;28;19927;-49
2022/03/07 14:39:31;;;;;;;;;;;;;;;;;;4927295;28;19931;-51
2022/03/07 14:41:56;;;;;;;;;;;;;;;;;;4961399;28;19928;-51
2022/03/07 14:44:21;;;;;;;;;;;;;;;;;;4954719;28;20565;-52
2022/03/07 14:46:46;;;;;;;;;;;;;;;;;;4941409;28;22090;-50
2022/03/07 14:49:11;;;;;;;;;;;;;;;;;;4933172;28;19921;-50
2022/03/07 14:51:36;;;;;;;;;;;;;;;;;;4914018;28;19921;-51
2022/03/07 14:54:01;;;;;;;;;;;;;;;;;;4940033;28;19929;-50
2022/03/07 14:56:28;;;;;;;;;;;;;;;;;;4932492;28;19921;-49
2022/03/07 14:58:53;;;;;;;;;;;;;;;;;;4923088;28;19925;-52
2022/03/07 15:01:18;;;;;;;;;;;;;;;;;;4905790;28;20016;-51
2022/03/07 15:03:43;;;;;;;;;;;;;;;;;;4924759;28;20047;-50
2022/03/07 15:06:08;;;;;;;;;;;;;;;;;;4919856;28;20997;-49
2022/03/07 15:08:33;;;;;;;;;;;;;;;;;;4952537;28;19996;-50
2022/03/07 15:10:58;;;;;;;;;;;;;;;;;;4994456;28;19920;-52
2022/03/07 15:13:23;;;;;;;;;;;;;;;;;;5001402;28;22094;-51
2022/03/07 15:15:49;;;;;;;;;;;;;;;;;;5005417;28;19932;-50
2022/03/07 15:18:14;;;;;;;;;;;;;;;;;;5004870;28;19925;-51
2022/03/07 15:20:39;;;;;;;;;;;;;;;;;;5000931;28;19921;-52
2022/03/07 15:23:04;;;;;;;;;;;;;;;;;;5003487;28;19920;-50
2022/03/07 15:25:29;;;;;;;;;;;;;;;;;;5010902;28;19936;-50
2022/03/07 15:27:54;;;;;;;;;;;;;;;;;;4990232;28;19960;-49
2022/03/07 15:30:19;;;;;;;;;;;;;;;;;;4997098;28;19925;-49
2022/03/07 15:32:45;;;;;;;;;;;;;;;;;;4984017;28;19921;-51
2022/03/07 15:35:10;;;;;;;;;;;;;;;;;;4996291;28;19921;-48
2022/03/07 15:37:35;;;;;;;;;;;;;;;;;;5021129;28;20004;-49
2022/03/07 15:40:01;;;;;;;;;;;;;;;;;;5028342;28;19967;-49
2022/03/07 15:42:26;;;;;;;;;;;;;;;;;;5030195;28;19935;-49
2022/03/07 15:44:51;;;;;;;;;;;;;;;;;;5030606;28;19944;-52
2022/03/07 15:47:16;;;;;;;;;;;;;;;;;;5030982;28;19921;-49
2022/03/07 15:49:41;;;;;;;;;;;;;;;;;;5028579;28;19979;-50
2022/03/07 15:52:06;;;;;;;;;;;;;;;;;;5033393;23;19924;-52
2022/03/07 15:54:31;;;;;;;;;;;;;;;;;;5008747;28;19964;-51
2022/03/07 15:56:59;;;;;;;;;;;;;;;;;;5018088;28;20059;-51
2022/03/07 15:59:24;;;;;;;;;;;;;;;;;;5030347;28;19920;-50
2022/03/07 16:01:53;;;;;;;;;;;;;;;;;;5049338;28;20412;-49
2022/03/07 16:04:18;;;;;;;;;;;;;;;;;;5059638;28;19916;-52
2022/03/07 16:06:44;;;;;;;;;;;;;;;;;;5048773;28;19915;-49
2022/03/07 16:09:09;;;;;;;;;;;;;;;;;;5049041;28;20011;-51
2022/03/07 16:11:34;;;;;;;;;;;;;;;;;;5047571;28;20228;-51
2022/03/07 16:14:00;;;;;;;;;;;;;;;;;;5062311;28;19920;-50
2022/03/07 16:16:25;;;;;;;;;;;;;;;;;;5055945;28;19921;-52
2022/03/07 16:18:50;;;;;;;;;;;;;;;;;;5075645;28;19916;-51
2022/03/07 16:21:15;;;;;;;;;;;;;;;;;;5090240;28;19920;-50
2022/03/07 16:23:41;;;;;;;;;;;;;;;;;;5091256;28;19912;-50
2022/03/07 16:26:06;;;;;;;;;;;;;;;;;;5065089;28;20407;-49
2022/03/07 16:28:31;;;;;;;;;;;;;;;;;;5065990;28;20267;-50
2022/03/07 16:30:56;;;;;;;;;;;;;;;;;;5063660;28;19921;-50